Time;durP1;ratioP1;P1;durP2;ratioP2;P2;SDS_P1;SDS_P2;PMS_P1;PMS_P2;Temp;Humidity;BMP_temperature;BMP_pressure;BME280_temperature;BME280_humidity;BME280_pressure;Samples;Min_cycle;Max_cycle;Signal;HPM_P1;HPM_P2
2022/10/30 00:01:23;;;;;;;0.90;0.88;;;;;;;12.97;91.35;100333.53;5095110;28;20056;-70
2022/10/30 00:03:52;;;;;;;1.58;1.45;;;;;;;12.97;91.16;100328.41;5096499;28;20056;-70
2022/10/30 00:06:21;;;;;;;2.83;2.45;;;;;;;12.96;91.60;100328.41;5096541;28;20067;-69
2022/10/30 00:08:49;;;;;;;2.78;1.83;;;;;;;12.97;91.74;100328.41;5096351;28;20055;-70
2022/10/30 00:11:18;;;;;;;1.88;1.65;;;;;;;12.98;91.69;100332.66;5095198;28;20387;-69
2022/10/30 00:13:48;;;;;;;1.60;1.45;;;;;;;12.99;91.72;100336.09;5096535;28;20432;-69
2022/10/30 00:16:17;;;;;;;1.65;1.55;;;;;;;12.97;91.75;100338.66;5096494;28;20043;-68
2022/10/30 00:18:45;;;;;;;2.63;2.38;;;;;;;12.88;91.49;100328.41;5096491;28;20494;-70
2022/10/30 00:21:16;;;;;;;2.95;1.60;;;;;;;12.95;91.83;100334.41;5096410;28;20105;-70
2022/10/30 00:23:49;;;;;;;1.70;1.48;;;;;;;12.97;91.91;100328.41;5096127;28;20051;-70
2022/10/30 00:26:19;;;;;;;1.73;1.52;;;;;;;12.99;91.63;100326.69;5094955;28;20044;-71
2022/10/30 00:28:51;;;;;;;1.65;1.42;;;;;;;13.00;91.60;100328.44;5096272;28;20040;-70
2022/10/30 00:31:20;;;;;;;2.28;2.08;;;;;;;12.97;91.76;100318.16;5096205;28;20040;-70
2022/10/30 00:33:50;;;;;;;1.98;1.27;;;;;;;12.79;91.49;100292.53;5095159;28;20438;-70
2022/10/30 00:36:18;;;;;;;5.97;1.63;;;;;;;13.03;92.06;100333.53;5095658;28;20406;-71
2022/10/30 00:38:47;;;;;;;2.03;1.65;;;;;;;12.99;91.72;100316.44;5095800;28;20047;-71
2022/10/30 00:41:17;;;;;;;3.42;3.13;;;;;;;12.97;92.01;100318.16;5095731;28;20044;-70
2022/10/30 00:43:46;;;;;;;2.90;2.33;;;;;;;12.95;91.78;100322.44;5095689;28;20047;-71
2022/10/30 00:46:21;;;;;;;2.03;1.67;;;;;;;12.97;91.91;100323.28;5095590;28;20052;-69
2022/10/30 00:48:54;;;;;;;3.03;2.28;;;;;;;12.97;91.56;100323.28;5094461;28;20048;-69
2022/10/30 00:51:24;;;;;;;1.40;1.30;;;;;;;12.93;91.96;100310.50;5095849;28;20051;-69
2022/10/30 00:53:53;;;;;;;2.28;1.58;;;;;;;12.93;91.53;100306.22;5095769;28;20044;-71
2022/10/30 00:56:23;;;;;;;5.68;2.97;;;;;;;12.84;91.94;100295.94;5095469;28;20040;-69
2022/10/30 00:58:54;;;;;;;;;;;;;;;12.82;91.92;100297.66;5094633;28;20044;-69
2022/10/30 01:01:28;;;;;;;3.67;1.77;;;;;;;12.85;92.06;100302.78;5095205;28;19970;-70
2022/10/30 01:04:00;;;;;;;2.08;1.85;;;;;;;12.84;92.01;100295.13;5094135;28;20059;-70
2022/10/30 01:06:32;;;;;;;2.25;1.98;;;;;;;12.86;91.85;100299.34;5094304;28;20040;-69
2022/10/30 01:09:02;;;;;;;6.25;2.45;;;;;;;12.90;91.91;100295.09;5094323;28;20090;-70
2022/10/30 01:11:31;;;;;;;5.70;2.35;;;;;;;12.90;92.13;100290.84;5094010;28;20048;-70
2022/10/30 01:14:04;;;;;;;1.40;1.30;;;;;;;12.95;92.25;100293.41;5093828;28;20064;-70
2022/10/30 01:16:54;;;;;;;5.35;3.22;;;;;;;12.98;91.89;100293.41;5095066;28;20105;-69
2022/10/30 01:19:36;;;;;;;1.70;1.45;;;;;;;12.99;91.78;100290.84;5093804;28;20036;-69
2022/10/30 01:22:19;;;;;;;1.23;1.08;;;;;;;12.97;92.14;100297.66;5094305;28;20490;-70
2022/10/30 01:25:02;;;;;;;3.70;1.88;;;;;;;12.95;91.83;100288.28;5093706;28;20101;-69
2022/10/30 01:27:40;;;;;;;1.17;0.80;;;;;;;12.93;92.03;100285.72;5093866;28;20036;-70
2022/10/30 01:30:22;;;;;;;2.00;1.90;;;;;;;12.93;92.16;100287.44;5093979;28;20056;-70
2022/10/30 01:33:06;;;;;;;2.47;2.10;;;;;;;12.95;91.64;100289.13;5094750;28;20048;-69
2022/10/30 01:35:44;;;;;;;2.25;2.05;;;;;;;12.91;91.62;100287.41;5094997;28;20097;-69
2022/10/30 01:38:19;;;;;;;3.40;2.40;;;;;;;12.91;91.83;100281.44;5094993;28;20040;-69
2022/10/30 01:40:52;;;;;;;3.27;1.83;;;;;;;12.91;91.61;100287.41;5095207;28;20078;-69
2022/10/30 01:43:21;;;;;;;7.53;2.53;;;;;;;12.89;91.85;100286.56;5095261;28;20281;-69
2022/10/30 01:46:13;;;;;;;2.90;1.65;;;;;;;12.89;91.59;100281.44;5094424;28;20567;-69
2022/10/30 01:49:04;;;;;;;2.05;1.50;;;;;;;12.89;91.69;100284.00;5093118;28;20052;-71
2022/10/30 01:51:46;;;;;;;2.47;2.28;;;;;;;12.86;91.78;100284.00;5093244;28;20044;-70
2022/10/30 01:54:22;;;;;;;4.13;2.10;;;;;;;12.77;91.72;100281.44;5094931;28;20490;-69
2022/10/30 01:57:01;;;;;;;2.20;2.03;;;;;;;12.84;92.16;100292.56;5076768;28;20052;-69
2022/10/30 01:59:34;;;;;;;2.92;1.80;;;;;;;12.81;91.91;100288.28;5093687;28;20135;-70
2022/10/30 02:02:04;;;;;;;4.53;3.22;;;;;;;12.81;91.97;100290.84;5094331;28;20056;-69
2022/10/30 02:04:35;;;;;;;3.55;2.60;;;;;;;12.80;92.21;100284.00;5092992;28;20066;-69
2022/10/30 02:07:04;;;;;;;4.57;3.97;;;;;;;12.80;92.04;100278.88;5094095;28;20043;-69
2022/10/30 02:09:40;;;;;;;3.40;2.03;;;;;;;12.82;92.06;100279.72;5094440;28;20052;-70
2022/10/30 02:12:09;;;;;;;2.60;1.35;;;;;;;12.84;92.22;100275.44;5092959;28;20131;-70
2022/10/30 02:14:43;;;;;;;2.28;2.08;;;;;;;12.81;91.94;100262.66;5094614;28;20036;-69
2022/10/30 02:17:13;;;;;;;1.15;1.08;;;;;;;12.83;92.35;100271.22;5093933;28;20052;-69
2022/10/30 02:19:43;;;;;;;3.40;1.48;;;;;;;12.85;92.43;100271.19;5076117;28;20043;-70
2022/10/30 02:22:13;;;;;;;2.72;1.77;;;;;;;12.85;92.07;100266.94;5094189;28;20127;-70
2022/10/30 02:24:44;;;;;;;2.33;2.15;;;;;;;12.87;92.35;100260.09;5093895;28;20056;-69
2022/10/30 02:27:13;;;;;;;1.85;1.25;;;;;;;12.87;92.25;100267.78;5093658;28;20056;-71
2022/10/30 02:29:42;;;;;;;2.55;1.77;;;;;;;12.77;92.32;100255.81;5092691;28;20043;-69
2022/10/30 02:32:10;;;;;;;5.97;3.05;;;;;;;12.85;92.41;100266.94;5092553;28;20040;-69
2022/10/30 02:34:39;;;;;;;1.30;1.20;;;;;;;12.86;92.10;100263.50;5093195;28;20636;-69
2022/10/30 02:37:08;;;;;;;2.53;2.35;;;;;;;12.83;91.95;100268.66;5092749;28;20040;-70
2022/10/30 02:39:41;;;;;;;3.30;2.30;;;;;;;12.80;92.02;100263.50;5093020;28;20054;-69
2022/10/30 02:42:10;;;;;;;1.77;1.40;;;;;;;12.71;92.29;100248.16;5092586;28;20059;-70
2022/10/30 02:44:40;;;;;;;4.70;3.33;;;;;;;12.78;92.13;100260.09;5092764;28;20052;-70
2022/10/30 02:47:08;;;;;;;2.47;2.28;;;;;;;12.77;92.14;100258.38;5092261;28;20093;-69
2022/10/30 02:49:37;;;;;;;2.13;1.83;;;;;;;12.72;92.41;100249.84;5092707;28;20043;-69
2022/10/30 02:52:07;;;;;;;1.33;1.23;;;;;;;12.75;92.26;100255.84;5093884;28;20113;-69
2022/10/30 02:54:36;;;;;;;8.73;2.47;;;;;;;12.77;92.27;100263.50;5093556;28;20052;-69
2022/10/30 02:57:06;;;;;;;1.45;1.35;;;;;;;12.74;92.85;100261.78;5092283;28;20039;-69
2022/10/30 02:59:35;;;;;;;13.73;3.53;;;;;;;12.74;92.47;100263.53;5094101;28;20060;-69
2022/10/30 03:02:03;;;;;;;3.00;2.35;;;;;;;12.75;92.54;100267.78;5096216;28;20043;-69
2022/10/30 03:04:32;;;;;;;2.00;1.80;;;;;;;12.74;92.75;100269.47;5096756;28;20052;-69
2022/10/30 03:07:01;;;;;;;2.77;1.50;;;;;;;12.76;92.46;100272.06;5096263;28;20036;-70
2022/10/30 03:09:30;;;;;;;3.03;1.55;;;;;;;12.76;92.40;100279.75;5097870;28;20044;-68
2022/10/30 03:11:58;;;;;;;2.83;2.22;;;;;;;12.72;92.44;100276.31;5097457;28;20036;-69
2022/10/30 03:14:28;;;;;;;4.68;1.15;;;;;;;12.70;92.47;100272.03;5097459;28;20075;-70
2022/10/30 03:16:57;;;;;;;2.20;1.75;;;;;;;12.70;92.52;100277.16;5097635;28;20051;-69
2022/10/30 03:19:25;;;;;;;2.85;2.10;;;;;;;12.68;92.39;100274.63;5097317;28;20052;-69
2022/10/30 03:21:55;;;;;;;3.05;2.60;;;;;;;12.67;92.62;100272.03;5097294;28;20051;-69
2022/10/30 03:24:23;;;;;;;2.97;2.75;;;;;;;12.66;92.77;100270.34;5097242;28;20044;-69
2022/10/30 03:26:52;;;;;;;2.70;2.50;;;;;;;12.65;92.90;100269.50;5097512;28;20040;-69
2022/10/30 03:29:21;;;;;;;1.75;1.65;;;;;;;12.41;92.84;100238.75;5095881;28;20066;-70
2022/10/30 03:31:51;;;;;;;4.22;2.70;;;;;;;12.61;92.96;100272.91;5095906;28;20044;-70
2022/10/30 03:34:21;;;;;;;2.60;2.03;;;;;;;12.64;93.00;100272.06;5097667;28;20056;-69
2022/10/30 03:36:50;;;;;;;2.20;1.93;;;;;;;12.61;92.82;100272.91;5095953;28;20068;-69
2022/10/30 03:39:18;;;;;;;2.95;2.67;;;;;;;12.63;92.62;100280.59;5097022;28;20284;-70
2022/10/30 03:41:47;;;;;;;1.83;1.67;;;;;;;12.64;93.05;100282.31;5095693;28;20040;-69
2022/10/30 03:44:18;;;;;;;3.17;2.67;;;;;;;12.68;92.82;100287.41;5096900;28;20581;-69
2022/10/30 03:46:47;;;;;;;3.58;3.28;;;;;;;12.66;92.88;100285.72;5095901;28;20068;-69
2022/10/30 03:49:42;;;;;;;2.30;2.10;;;;;;;12.65;92.65;100284.00;5095320;28;20048;-69
2022/10/30 03:52:14;;;;;;;3.53;3.22;;;;;;;12.64;92.88;100282.31;5095871;28;20040;-69
2022/10/30 03:54:43;;;;;;;7.22;3.00;;;;;;;12.65;92.99;100294.25;5096043;28;20123;-68
2022/10/30 03:57:15;;;;;;;5.03;2.25;;;;;;;12.63;92.80;100288.25;5096637;28;20044;-69
2022/10/30 03:59:58;;;;;;;3.90;2.30;;;;;;;12.60;92.77;100283.13;5095381;28;20130;-68
2022/10/30 04:02:38;;;;;;;;;;;;;;;12.58;92.73;100282.28;5096259;28;20044;-69
2022/10/30 04:05:10;;;;;;;3.05;2.75;;;;;;;12.55;92.71;100283.13;5095305;28;19920;-69
2022/10/30 04:07:39;;;;;;;1.73;1.63;;;;;;;12.52;92.87;100279.72;5094009;28;20044;-67
2022/10/30 04:10:09;;;;;;;3.22;1.60;;;;;;;12.44;93.02;100281.41;5095147;28;20044;-68
2022/10/30 04:12:38;;;;;;;3.05;1.30;;;;;;;12.38;92.86;100278.88;5093927;28;20509;-69
2022/10/30 04:15:08;;;;;;;1.93;1.83;;;;;;;12.35;92.86;100283.97;5094259;28;20512;-71
2022/10/30 04:17:38;;;;;;;2.92;2.10;;;;;;;12.34;93.24;100282.25;5094476;28;20067;-69
2022/10/30 04:20:08;;;;;;;1.43;1.33;;;;;;;12.35;93.13;100283.97;5093817;28;20040;-69
2022/10/30 04:22:38;;;;;;;1.27;1.17;;;;;;;12.34;93.09;100278.00;5094179;28;20486;-69
2022/10/30 04:25:07;;;;;;;5.55;4.05;;;;;;;12.31;93.18;100272.84;5094436;28;20058;-69
2022/10/30 04:27:40;;;;;;;2.20;2.00;;;;;;;12.32;93.33;100273.72;5095132;28;20040;-70
2022/10/30 04:30:11;;;;;;;6.15;2.80;;;;;;;12.31;93.37;100272.84;5093927;28;20137;-69
2022/10/30 04:32:46;;;;;;;2.95;2.63;;;;;;;12.31;93.26;100277.16;5093712;28;20076;-70
2022/10/30 04:35:20;;;;;;;2.03;1.85;;;;;;;12.33;93.16;100265.19;5094847;28;20135;-70
2022/10/30 04:37:54;;;;;;;2.03;1.83;;;;;;;12.23;93.31;100245.56;5093622;28;20051;-70
2022/10/30 04:40:24;;;;;;;4.97;4.40;;;;;;;12.30;93.03;100265.19;5093528;28;20056;-69
2022/10/30 04:42:57;;;;;;;1.48;1.38;;;;;;;12.29;93.19;100268.59;5094916;28;20124;-70
2022/10/30 04:45:27;;;;;;;3.70;1.85;;;;;;;12.28;93.23;100266.91;5093444;28;20055;-70
2022/10/30 04:48:01;;;;;;;2.97;1.98;;;;;;;12.28;93.47;100266.91;5094554;28;20486;-70
2022/10/30 04:50:32;;;;;;;2.55;2.20;;;;;;;12.27;93.10;100265.19;5094859;28;20056;-69
2022/10/30 04:53:05;;;;;;;6.32;2.33;;;;;;;12.26;93.18;100268.59;5093500;28;20093;-69
2022/10/30 04:55:34;;;;;;;5.40;2.08;;;;;;;12.27;93.47;100260.06;5093365;28;20044;-69
2022/10/30 04:58:03;;;;;;;1.33;1.23;;;;;;;12.24;93.22;100266.03;5093536;28;20055;-69
2022/10/30 05:00:36;;;;;;;1.17;1.05;;;;;;;12.20;93.21;100258.34;5094392;28;20052;-69
2022/10/30 05:03:19;;;;;;;0.82;0.82;;;;;;;12.17;93.40;100264.31;5049547;28;1289471;-69
2022/10/30 05:05:49;;;;;;;1.80;1.67;;;;;;;12.17;93.24;100269.41;5095345;28;20048;-69
2022/10/30 05:08:19;;;;;;;2.05;1.85;;;;;;;12.20;93.24;100273.69;5095224;28;20059;-69
2022/10/30 05:10:48;;;;;;;2.70;1.70;;;;;;;12.19;93.42;100267.72;5095594;28;20044;-68
2022/10/30 05:13:17;;;;;;;0.75;0.75;;;;;;;12.18;93.30;100270.28;5093916;28;20074;-69
2022/10/30 05:15:46;;;;;;;2.05;1.45;;;;;;;12.17;93.21;100276.25;5095493;28;20078;-69
2022/10/30 05:18:15;;;;;;;1.48;1.38;;;;;;;12.15;93.41;100275.38;5094417;28;20481;-68
2022/10/30 05:20:47;;;;;;;2.45;2.13;;;;;;;12.12;93.23;100275.41;5093837;28;20076;-69
2022/10/30 05:23:15;;;;;;;6.35;2.22;;;;;;;12.09;93.44;100268.56;5093469;28;20070;-69
2022/10/30 05:25:45;;;;;;;0.80;0.80;;;;;;;12.08;93.52;100270.25;5077147;28;20068;-69
2022/10/30 05:28:16;;;;;;;1.20;1.10;;;;;;;12.07;93.45;100267.69;5094232;28;20039;-67
2022/10/30 05:30:52;;;;;;;1.95;1.77;;;;;;;12.00;93.47;100264.25;5095162;28;20052;-70
2022/10/30 05:33:42;;;;;;;6.07;4.40;;;;;;;11.97;93.58;100266.81;5094688;28;20048;-70
2022/10/30 05:36:11;;;;;;;1.52;1.42;;;;;;;11.97;93.71;100265.97;5076903;28;20505;-68
2022/10/30 05:38:41;;;;;;;;;;;;;;;11.99;93.50;100270.25;5095296;28;20040;-69
2022/10/30 05:41:17;;;;;;;1.55;1.45;;;;;;;12.01;93.61;100273.66;5093957;28;19920;-68
2022/10/30 05:43:46;;;;;;;3.17;2.03;;;;;;;12.05;93.74;100275.38;5093449;28;20068;-69
2022/10/30 05:46:14;;;;;;;4.32;1.25;;;;;;;12.05;93.63;100271.94;5093717;28;20040;-68
2022/10/30 05:48:44;;;;;;;3.10;2.55;;;;;;;11.94;93.57;100256.59;5093252;28;20048;-68
2022/10/30 05:51:12;;;;;;;1.67;1.55;;;;;;;12.04;93.67;100278.75;5093593;28;20052;-69
2022/10/30 05:53:48;;;;;;;2.63;1.92;;;;;;;12.03;93.33;100274.50;5093215;28;20036;-69
2022/10/30 05:56:20;;;;;;;1.67;1.45;;;;;;;12.03;93.77;100277.06;5094393;28;20075;-68
2022/10/30 05:58:50;;;;;;;7.32;3.35;;;;;;;12.05;93.82;100279.63;5093157;28;20130;-70
2022/10/30 06:01:19;;;;;;;2.10;1.23;;;;;;;12.04;93.57;100273.66;5094438;28;20040;-71
2022/10/30 06:03:51;;;;;;;3.03;1.40;;;;;;;11.81;93.91;100230.94;5094462;28;20444;-69
2022/10/30 06:06:20;;;;;;;1.33;1.23;;;;;;;12.04;93.69;100276.19;5093013;28;20044;-70
2022/10/30 06:08:50;;;;;;;4.65;3.35;;;;;;;12.02;93.76;100272.78;5094293;28;20058;-70
2022/10/30 06:11:43;;;;;;;1.95;1.60;;;;;;;12.02;93.83;100277.91;5087693;28;20363;-69
2022/10/30 06:14:13;;;;;;;0.80;0.80;;;;;;;12.02;93.61;100280.47;5093213;28;20043;-69
2022/10/30 06:16:49;;;;;;;3.88;1.52;;;;;;;12.03;93.74;100271.97;5093112;28;20134;-71
2022/10/30 06:19:17;;;;;;;1.87;1.73;;;;;;;12.05;93.76;100270.25;5094280;28;20040;-69
2022/10/30 06:21:49;;;;;;;1.35;1.25;;;;;;;12.06;93.91;100269.41;5092977;28;20052;-69
2022/10/30 06:24:32;;;;;;;8.32;3.33;;;;;;;12.06;93.65;100271.97;5092744;28;20059;-69
2022/10/30 06:27:19;;;;;;;3.20;1.88;;;;;;;12.02;93.86;100279.63;5094199;28;20406;-69
2022/10/30 06:29:48;;;;;;;3.33;2.28;;;;;;;12.00;94.06;100276.19;5093750;28;20052;-69
2022/10/30 06:32:17;;;;;;;4.22;2.10;;;;;;;12.03;94.33;100279.63;5092056;28;20487;-70
2022/10/30 06:34:46;;;;;;;1.90;1.80;;;;;;;12.05;94.10;100277.94;5092327;28;20502;-70
2022/10/30 06:37:17;;;;;;;1.55;1.33;;;;;;;12.08;94.21;100283.06;5092400;28;20561;-70
2022/10/30 06:39:46;;;;;;;4.03;0.95;;;;;;;12.09;94.33;100282.19;5092356;28;20052;-70
2022/10/30 06:42:42;;;;;;;5.63;3.70;;;;;;;12.12;94.24;100290.75;5093557;28;20044;-70
2022/10/30 06:45:24;;;;;;;3.50;2.07;;;;;;;12.11;94.07;100284.78;5093707;28;20044;-69
2022/10/30 06:47:52;;;;;;;3.65;2.53;;;;;;;12.14;94.23;100299.28;5092428;28;20341;-69
2022/10/30 06:50:23;;;;;;;16.13;4.18;;;;;;;12.14;94.33;100294.16;5075695;28;20040;-70
2022/10/30 06:52:54;;;;;;;6.65;3.65;;;;;;;12.20;94.15;100291.59;5093479;28;20134;-69
2022/10/30 06:55:23;;;;;;;4.25;2.90;;;;;;;12.18;94.38;100295.88;5092700;28;20059;-69
2022/10/30 06:58:13;;;;;;;2.80;2.20;;;;;;;12.10;94.18;100289.03;5093230;28;20048;-70
2022/10/30 07:00:56;;;;;;;6.55;2.78;;;;;;;12.03;94.27;100279.63;5093328;28;20040;-69
2022/10/30 07:03:36;;;;;;;7.82;3.30;;;;;;;12.10;94.19;100294.16;5076523;28;20093;-70
2022/10/30 07:06:05;;;;;;;5.20;2.67;;;;;;;12.13;94.39;100292.44;5092173;28;20052;-69
2022/10/30 07:08:34;;;;;;;23.75;6.43;;;;;;;12.09;94.11;100292.44;5092193;28;20300;-69
2022/10/30 07:11:02;;;;;;;2.25;2.05;;;;;;;12.11;94.36;100295.00;5092288;28;20401;-69
2022/10/30 07:13:43;;;;;;;4.88;3.25;;;;;;;12.12;94.47;100295.88;5093311;28;20063;-69
2022/10/30 07:16:29;;;;;;;5.55;3.03;;;;;;;12.19;94.46;100295.03;5092392;28;20596;-70
2022/10/30 07:18:58;;;;;;;10.25;2.53;;;;;;;12.18;94.40;100293.31;5093240;28;20048;-69
2022/10/30 07:21:34;;;;;;;5.03;2.20;;;;;;;12.14;94.58;100299.28;5093259;28;20040;-70
2022/10/30 07:24:07;;;;;;;2.88;1.95;;;;;;;12.14;94.37;100299.28;5093283;28;20044;-69
2022/10/30 07:26:50;;;;;;;5.88;2.17;;;;;;;12.14;94.52;100292.44;5093247;28;20052;-69
2022/10/30 07:29:33;;;;;;;11.43;3.75;;;;;;;12.18;94.54;100295.88;5092447;28;20071;-69
2022/10/30 07:32:13;;;;;;;7.35;3.58;;;;;;;12.19;94.48;100297.59;5093124;28;20051;-69
2022/10/30 07:34:52;;;;;;;;;;;;;;;12.20;94.39;100304.41;5093570;28;20072;-70
2022/10/30 07:37:29;;;;;;;2.72;2.42;;;;;;;12.20;94.48;100299.28;5092508;28;19960;-69
2022/10/30 07:40:03;;;;;;;5.05;2.70;;;;;;;12.16;94.74;100292.47;5093096;28;20123;-69
2022/10/30 07:42:56;;;;;;;2.88;2.58;;;;;;;12.24;94.54;100308.69;5092710;28;20060;-69
2022/10/30 07:45:47;;;;;;;3.17;2.13;;;;;;;12.27;94.48;100311.25;5093454;28;20513;-69
2022/10/30 07:48:21;;;;;;;4.55;2.20;;;;;;;12.25;94.32;100289.91;5097088;28;20051;-69
2022/10/30 07:51:01;;;;;;;9.70;5.57;;;;;;;12.33;94.86;100296.78;5097290;28;20130;-69
2022/10/30 07:53:30;;;;;;;2.58;2.38;;;;;;;12.32;94.66;100299.31;5095953;28;20508;-69
2022/10/30 07:55:59;;;;;;;5.50;3.05;;;;;;;12.31;94.41;100298.44;5095665;28;20036;-70
2022/10/30 07:58:39;;;;;;;5.95;2.38;;;;;;;12.35;94.52;100301.88;5096950;28;20125;-70
2022/10/30 08:01:25;;;;;;;4.60;2.78;;;;;;;12.39;94.70;100306.16;5096537;28;20050;-71
2022/10/30 08:03:58;;;;;;;4.90;2.78;;;;;;;12.44;94.54;100304.47;5096546;28;20044;-70
2022/10/30 08:06:30;;;;;;;3.78;2.38;;;;;;;12.46;94.34;100297.63;5096739;28;20524;-69
2022/10/30 08:08:59;;;;;;;3.53;3.05;;;;;;;12.49;94.61;100295.94;5095261;28;20097;-69
2022/10/30 08:11:28;;;;;;;4.43;3.28;;;;;;;12.49;94.64;100310.44;5096335;28;20138;-69
2022/10/30 08:13:59;;;;;;;6.05;2.60;;;;;;;12.47;94.20;100312.16;5095108;28;20051;-69
2022/10/30 08:16:29;;;;;;;7.68;2.53;;;;;;;12.46;94.12;100318.09;5096264;28;20036;-69
2022/10/30 08:18:58;;;;;;;2.78;1.92;;;;;;;12.48;94.53;100311.28;5095517;28;20105;-69
2022/10/30 08:21:28;;;;;;;4.80;3.00;;;;;;;12.50;94.37;100312.16;5096152;28;20044;-69
2022/10/30 08:24:00;;;;;;;6.05;2.80;;;;;;;12.46;94.48;100297.63;5096219;28;20101;-69
2022/10/30 08:26:31;;;;;;;3.40;2.47;;;;;;;12.54;94.19;100311.31;5096086;28;20101;-68
2022/10/30 08:28:59;;;;;;;2.67;2.22;;;;;;;12.56;94.22;100304.47;5094861;28;20444;-69
2022/10/30 08:31:32;;;;;;;2.28;1.75;;;;;;;12.55;93.83;100311.28;5094969;28;20398;-70
2022/10/30 08:34:04;;;;;;;3.78;3.47;;;;;;;12.54;93.97;100303.63;5096521;28;20051;-69
2022/10/30 08:36:32;;;;;;;3.58;3.15;;;;;;;12.52;93.87;100310.47;5095812;28;20127;-69
2022/10/30 08:39:03;;;;;;;3.80;2.92;;;;;;;12.48;93.74;100311.28;5095832;28;20052;-69
2022/10/30 08:41:43;;;;;;;3.15;2.83;;;;;;;12.51;93.94;100313.84;5095754;28;20099;-69
2022/10/30 08:44:12;;;;;;;4.20;2.67;;;;;;;12.56;93.58;100304.47;5095039;28;20382;-69
2022/10/30 08:46:53;;;;;;;2.47;2.10;;;;;;;12.62;93.94;100309.63;5094753;28;20159;-69
2022/10/30 08:49:24;;;;;;;3.03;2.15;;;;;;;12.63;93.54;100312.16;5094680;28;20048;-68
2022/10/30 08:51:56;;;;;;;7.07;2.05;;;;;;;12.66;93.66;100311.31;5092432;28;20044;-68
2022/10/30 08:54:27;;;;;;;15.45;2.85;;;;;;;12.65;93.30;100309.59;5095131;28;20080;-69
2022/10/30 08:56:56;;;;;;;4.47;2.58;;;;;;;12.62;93.36;100309.63;5093375;28;20559;-67
2022/10/30 08:59:25;;;;;;;1.98;1.85;;;;;;;12.62;93.49;100304.50;5093534;28;20569;-68
2022/10/30 09:01:59;;;;;;;1.48;1.20;;;;;;;12.61;93.29;100303.63;5093647;28;20060;-68
2022/10/30 09:04:38;;;;;;;3.42;1.77;;;;;;;12.64;93.42;100307.91;5095189;28;20493;-69
2022/10/30 09:07:19;;;;;;;3.67;2.58;;;;;;;12.66;93.34;100303.63;5094942;28;20052;-70
2022/10/30 09:10:10;;;;;;;5.68;3.25;;;;;;;12.66;93.14;100301.09;5094758;28;20036;-69
2022/10/30 09:12:39;;;;;;;3.47;1.35;;;;;;;12.63;92.96;100306.19;5094031;28;20040;-69
2022/10/30 09:15:08;;;;;;;4.00;1.83;;;;;;;12.65;93.13;100296.78;5095150;28;20428;-69
2022/10/30 09:17:56;;;;;;;2.78;1.63;;;;;;;12.68;92.60;100295.09;5093686;28;20097;-69
2022/10/30 09:20:25;;;;;;;5.28;2.42;;;;;;;12.68;92.53;100301.94;5095079;28;20089;-69
2022/10/30 09:22:54;;;;;;;2.17;1.98;;;;;;;12.69;92.97;100311.34;5095004;28;20067;-68
2022/10/30 09:25:23;;;;;;;2.95;2.50;;;;;;;12.65;92.68;100309.59;5093818;28;20048;-69
2022/10/30 09:28:07;;;;;;;6.03;2.70;;;;;;;12.63;92.65;100306.19;5093894;28;20052;-69
2022/10/30 09:30:56;;;;;;;1.27;1.17;;;;;;;12.58;92.72;100303.63;5093508;28;20048;-70
2022/10/30 09:33:28;;;;;;;4.30;3.45;;;;;;;12.54;92.55;100295.94;5094712;28;20508;-69
2022/10/30 09:36:20;;;;;;;4.30;2.75;;;;;;;12.53;92.42;100300.22;5094519;28;20089;-68
2022/10/30 09:38:50;;;;;;;3.20;2.67;;;;;;;12.58;92.40;100300.22;5093628;28;20068;-69
2022/10/30 09:41:42;;;;;;;3.00;2.40;;;;;;;12.61;92.57;100302.78;5093275;28;20036;-69
2022/10/30 09:44:32;;;;;;;1.38;1.10;;;;;;;12.59;92.62;100294.25;5093327;28;20127;-69
2022/10/30 09:47:16;;;;;;;3.95;2.40;;;;;;;12.57;92.36;100301.06;5094542;28;20105;-68
2022/10/30 09:50:03;;;;;;;2.78;2.08;;;;;;;12.50;92.35;100296.81;5110209;28;20093;-69
2022/10/30 09:52:46;;;;;;;5.90;3.28;;;;;;;12.51;92.69;100295.94;5093216;28;20036;-68
2022/10/30 09:55:27;;;;;;;1.67;1.48;;;;;;;12.55;92.52;100297.63;5093201;28;20047;-69
2022/10/30 09:58:06;;;;;;;1.63;1.52;;;;;;;12.54;92.05;100293.38;5093460;28;20071;-69
2022/10/30 10:00:39;;;;;;;4.40;1.63;;;;;;;12.48;92.02;100291.66;5093259;28;20047;-69
2022/10/30 10:03:38;;;;;;;5.07;2.55;;;;;;;12.43;92.15;100292.53;5094139;28;20075;-70
2022/10/30 10:06:37;;;;;;;2.05;1.85;;;;;;;12.30;91.95;100295.91;5093989;28;20429;-69
2022/10/30 10:09:20;;;;;;;2.88;2.17;;;;;;;12.28;92.57;100303.59;5093777;28;20044;-69
2022/10/30 10:11:55;;;;;;;3.28;2.65;;;;;;;12.39;92.21;100301.03;5093842;28;20050;-69
2022/10/30 10:14:26;;;;;;;1.05;0.88;;;;;;;12.44;92.30;100299.34;5094309;28;20040;-68
2022/10/30 10:16:57;;;;;;;3.25;2.95;;;;;;;12.46;92.35;100292.50;5094320;28;20109;-68
2022/10/30 10:19:32;;;;;;;1.85;1.75;;;;;;;12.53;92.51;100300.22;5094553;28;20395;-69
2022/10/30 10:22:08;;;;;;;3.33;1.00;;;;;;;12.57;92.28;100304.47;5094133;28;20044;-70
2022/10/30 10:24:40;;;;;;;2.92;2.13;;;;;;;12.67;92.83;100308.75;5094438;28;20096;-69
2022/10/30 10:27:18;;;;;;;3.10;2.33;;;;;;;12.67;92.41;100305.34;5094127;28;20519;-69
2022/10/30 10:29:59;;;;;;;0.65;0.65;;;;;;;12.69;92.52;100301.09;5094241;28;20055;-68
2022/10/30 10:32:50;;;;;;;5.35;3.60;;;;;;;12.61;92.23;100292.53;5094059;28;20063;-68
2022/10/30 10:35:37;;;;;;;3.65;2.80;;;;;;;12.61;92.08;100289.97;5085093;28;20055;-68
2022/10/30 10:38:19;;;;;;;2.05;1.90;;;;;;;12.62;92.44;100284.00;5094030;28;20075;-68
2022/10/30 10:40:57;;;;;;;3.20;2.90;;;;;;;12.67;92.15;100284.84;5093756;28;20067;-69
2022/10/30 10:43:44;;;;;;;3.33;2.58;;;;;;;12.78;92.54;100286.59;5094048;28;20040;-69
2022/10/30 10:46:31;;;;;;;5.85;2.17;;;;;;;12.80;92.01;100291.69;5093915;28;20058;-69
2022/10/30 10:49:12;;;;;;;1.20;0.85;;;;;;;12.81;91.85;100290.84;5093477;28;20052;-69
2022/10/30 10:51:45;;;;;;;2.83;1.42;;;;;;;12.87;91.88;100280.59;5093601;28;20067;-68
2022/10/30 10:54:19;;;;;;;7.10;1.98;;;;;;;12.87;91.74;100285.72;5093500;28;20489;-68
2022/10/30 10:56:51;;;;;;;2.33;1.83;;;;;;;12.92;92.05;100278.88;5093570;28;20105;-68
2022/10/30 10:59:23;;;;;;;3.30;1.95;;;;;;;12.96;91.60;100285.69;5093471;28;20055;-68
2022/10/30 11:02:31;;;;;;;1.65;1.55;;;;;;;12.74;91.79;100243.03;5093383;28;20056;-69
2022/10/30 11:05:06;;;;;;;1.63;1.30;;;;;;;13.03;91.74;100273.75;5093338;28;20109;-70
2022/10/30 11:07:45;;;;;;;0.82;0.82;;;;;;;12.93;91.21;100265.22;5094184;28;20048;-68
2022/10/30 11:10:17;;;;;;;1.70;1.30;;;;;;;12.88;91.27;100271.19;5093811;28;20051;-68
2022/10/30 11:12:46;;;;;;;1.35;1.23;;;;;;;12.84;91.12;100274.63;5093576;28;20044;-69
2022/10/30 11:15:26;;;;;;;2.05;1.30;;;;;;;12.86;90.99;100272.91;5093464;28;20040;-68
2022/10/30 11:18:00;;;;;;;1.52;1.42;;;;;;;12.88;91.32;100276.31;5093657;28;20052;-68
2022/10/30 11:20:35;;;;;;;1.30;1.10;;;;;;;12.90;91.50;100270.34;5093708;28;20054;-68
2022/10/30 11:23:03;;;;;;;1.90;1.45;;;;;;;12.96;91.54;100274.59;5097888;28;20105;-68
2022/10/30 11:25:36;;;;;;;2.00;1.33;;;;;;;13.00;91.48;100284.88;5097143;28;20059;-68
2022/10/30 11:28:05;;;;;;;2.53;2.33;;;;;;;12.99;91.40;100280.56;5097237;28;20044;-68
2022/10/30 11:30:34;;;;;;;0.97;0.97;;;;;;;12.99;91.01;100285.72;5097515;28;20089;-68
2022/10/30 11:33:23;;;;;;;2.15;1.77;;;;;;;12.92;91.22;100278.88;5097185;28;20028;-68
2022/10/30 11:35:52;;;;;;;2.13;0.88;;;;;;;12.85;91.08;100277.19;5097245;28;20443;-68
2022/10/30 11:38:21;;;;;;;2.22;1.38;;;;;;;12.84;91.19;100275.44;5095920;28;20044;-69
2022/10/30 11:40:53;;;;;;;9.02;2.05;;;;;;;12.90;91.40;100265.22;5096955;28;20048;-68
2022/10/30 11:43:24;;;;;;;1.58;1.30;;;;;;;12.86;90.98;100247.28;5096963;28;20044;-69
2022/10/30 11:45:53;;;;;;;1.70;1.17;;;;;;;12.87;91.04;100244.72;5096790;28;20040;-69
2022/10/30 11:48:27;;;;;;;1.60;1.33;;;;;;;12.86;91.12;100248.13;5096682;28;20052;-68
2022/10/30 11:50:59;;;;;;;1.65;1.40;;;;;;;12.81;91.50;100255.00;5097281;28;20040;-70
2022/10/30 11:53:34;;;;;;;3.05;1.48;;;;;;;12.83;91.20;100263.53;5096798;28;20085;-70
2022/10/30 11:56:15;;;;;;;2.28;1.42;;;;;;;12.85;91.82;100272.06;5096654;28;20079;-70
2022/10/30 11:58:47;;;;;;;1.23;1.10;;;;;;;12.91;91.67;100263.53;5095734;28;20051;-70